DEOSL ZZZZ-EDDG
Flight info
| Callsign | DEOSL |
|---|---|
| Flight time | N/A |
| Altitude | |
| Route | |
| Aircraft |
Departure
| Time | N/A |
|---|---|
| Airport | ZZZZ |
Arrival
| Time | 2026-04-26 18:04 |
|---|---|
| Airport | Münster Osnabrück Airport (EDDG) |
| Time | Latitude | Longitude | Altitude | Speed | Heading |
|---|---|---|---|---|---|
| 2026-04-26 17:54 | 51.98280 | 7.55392 | 1170 ft | 92 kts | 25° |
| 2026-04-26 17:54 | 51.98854 | 7.55827 | 1188 ft | 90 kts | 26° |
| 2026-04-26 17:55 | 51.99409 | 7.56319 | 1172 ft | 92 kts | 30° |
| 2026-04-26 17:55 | 51.99929 | 7.56893 | 1219 ft | 89 kts | 38° |
| 2026-04-26 17:55 | 52.00430 | 7.57498 | 1291 ft | 85 kts | 34° |
| 2026-04-26 17:55 | 52.00909 | 7.57959 | 1416 ft | 82 kts | 32° |
| 2026-04-26 17:56 | 52.01414 | 7.58507 | 1399 ft | 92 kts | 34° |
| 2026-04-26 17:56 | 52.02573 | 7.59580 | 1224 ft | 100 kts | 27° |
| 2026-04-26 17:57 | 52.03811 | 7.60417 | 1200 ft | 94 kts | 23° |
| 2026-04-26 17:57 | 52.04420 | 7.60831 | 1161 ft | 94 kts | 25° |
| 2026-04-26 17:57 | 52.04997 | 7.61254 | 1218 ft | 89 kts | 24° |
| 2026-04-26 17:57 | 52.05573 | 7.61664 | 1246 ft | 90 kts | 24° |
| 2026-04-26 17:58 | 52.07248 | 7.62867 | 1402 ft | 90 kts | 28° |
| 2026-04-26 17:59 | 52.08365 | 7.63938 | 1329 ft | 97 kts | 35° |
| 2026-04-26 17:59 | 52.08879 | 7.64617 | 1296 ft | 96 kts | 45° |
| 2026-04-26 17:59 | 52.09283 | 7.65435 | 1268 ft | 91 kts | 54° |
| 2026-04-26 17:59 | 52.09600 | 7.66322 | 1251 ft | 90 kts | 59° |
| 2026-04-26 18:00 | 52.09900 | 7.67237 | 1201 ft | 91 kts | 60° |
| 2026-04-26 18:00 | 52.10199 | 7.68151 | 1159 ft | 92 kts | 61° |
| 2026-04-26 18:00 | 52.10503 | 7.69063 | 1132 ft | 92 kts | 58° |
| 2026-04-26 18:00 | 52.10842 | 7.69926 | 1149 ft | 88 kts | 56° |
| 2026-04-26 18:01 | 52.11211 | 7.70767 | 1054 ft | 94 kts | 53° |
| 2026-04-26 18:01 | 52.11611 | 7.71602 | 1023 ft | 94 kts | 47° |
| 2026-04-26 18:01 | 52.12066 | 7.72363 | 1003 ft | 93 kts | 42° |
| 2026-04-26 18:01 | 52.12555 | 7.72970 | 817 ft | 86 kts | 27° |
| 2026-04-26 18:02 | 52.13099 | 7.73137 | 753 ft | 75 kts | 358° |
| 2026-04-26 18:02 | 52.13437 | 7.73037 | 687 ft | 74 kts | 351° |
| 2026-04-26 18:02 | 52.14054 | 7.72720 | 646 ft | 60 kts | 341° |
| 2026-04-26 18:02 | 52.14298 | 7.72194 | 540 ft | 62 kts | 284° |
| 2026-04-26 18:03 | 52.14128 | 7.71526 | 409 ft | 64 kts | 249° |
| 2026-04-26 18:03 | 52.13945 | 7.70804 | 336 ft | 70 kts | 257° |
| 2026-04-26 18:03 | 52.13793 | 7.70043 | 260 ft | 71 kts | 257° |
| 2026-04-26 18:03 | 52.13646 | 7.69332 | 164 ft | 57 kts | 256° |
| 2026-04-26 18:04 | 52.13536 | 7.68819 | 161 ft | 42 kts | 252° |
| 2026-04-26 18:04 | 52.13450 | 7.68415 | 163 ft | 33 kts | 251° |
| 2026-04-26 18:04 | 52.13354 | 7.68258 | 162 ft | 16 kts | 149° |
| 2026-04-26 18:05 | 52.13173 | 7.68340 | 162 ft | 12 kts | 211° |
| 2026-04-26 18:05 | 52.13157 | 7.68249 | 162 ft | 9 kts | 270° |
| 2026-04-26 18:05 | 52.13157 | 7.68228 | 162 ft | 0 kts | 275° |